Terminal Aerodrome Forecast
Issued by NWS

Home | Current Version | Previous Version | Text Only | Print | Product List | Glossary On
Versions: 1 2 3 4 5 6 7 8 9 10 11 12 13 14 15
000
FTUS46 KSEW 310600 AAA
TAFHQM
TAF AMD
KHQM 310605Z 3106/0106 VRB04KT 5SM BR SCT002 SCT050 OVC100
      TEMPO 3106/3109 2SM -SHRA BR BKN002 BKN050 OVC100
     FM310900 12006KT P6SM -SHRA SCT030 OVC050
      TEMPO 3109/3112 BKN030 OVC050
     FM311200 21008KT P6SM -SHRA BKN025 OVC050
     FM312000 21008KT P6SM VCSH SCT030 BKN050=

USA.gov is the U.S. government's official web portal to all federal, state and local government web resources and services.